createdAt,value
2022-12-13T00:01:25.318Z,-6.70
2022-12-13T00:03:55.907Z,-6.80
2022-12-13T00:08:49.651Z,-7.00
2022-12-13T00:11:16.694Z,-6.90
2022-12-13T00:16:11.888Z,-6.80
2022-12-13T00:18:38.858Z,-6.80
2022-12-13T00:23:33.016Z,-7.10
2022-12-13T00:28:28.559Z,-6.90
2022-12-13T00:33:22.291Z,-6.80
2022-12-13T00:35:48.870Z,-6.90
2022-12-13T00:38:15.598Z,-6.90
2022-12-13T00:40:42.166Z,-6.90
2022-12-13T00:43:08.743Z,-7.00
2022-12-13T00:45:35.460Z,-7.00
2022-12-13T00:48:02.038Z,-7.00
2022-12-13T00:50:28.598Z,-7.00
2022-12-13T00:52:55.252Z,-7.00
2022-12-13T00:55:21.833Z,-7.10
2022-12-13T00:57:48.394Z,-7.10
2022-12-13T01:00:15.112Z,-7.00
2022-12-13T01:02:43.371Z,-7.10
2022-12-13T01:05:10.300Z,-7.10
2022-12-13T01:10:05.496Z,-7.10
2022-12-13T01:12:32.845Z,-7.10
2022-12-13T01:14:59.626Z,-7.10
2022-12-13T01:17:26.387Z,-7.10
2022-12-13T01:22:20.142Z,-7.10
2022-12-13T01:24:46.725Z,-7.10
2022-12-13T01:27:13.516Z,-7.10
2022-12-13T01:32:07.261Z,-7.10
2022-12-13T01:34:33.856Z,-7.30
2022-12-13T01:37:00.492Z,-7.40
2022-12-13T01:41:59.349Z,-7.20
2022-12-13T01:44:49.461Z,-7.10
2022-12-13T01:47:18.368Z,-7.20
2022-12-13T01:49:45.051Z,-7.20
2022-12-13T01:52:13.172Z,-7.20
2022-12-13T01:54:46.585Z,-7.20
2022-12-13T01:57:15.415Z,-7.20
2022-12-13T01:59:42.583Z,-7.20
2022-12-13T02:02:11.907Z,-7.30
2022-12-13T02:04:46.912Z,-7.30
2022-12-13T02:07:23.000Z,-7.30
2022-12-13T02:09:56.670Z,-7.40
2022-12-13T02:12:30.010Z,-7.40
2022-12-13T02:15:00.648Z,-7.60
2022-12-13T02:17:43.764Z,-7.50
2022-12-13T02:20:11.637Z,-7.40
2022-12-13T02:22:57.058Z,-7.40
2022-12-13T02:25:42.494Z,-7.30
2022-12-13T02:28:31.027Z,-7.30
2022-12-13T02:31:04.442Z,-7.20
2022-12-13T02:33:49.858Z,-7.10
2022-12-13T02:36:27.858Z,-7.30
2022-12-13T02:39:03.402Z,-7.40
2022-12-13T02:41:41.997Z,-7.40
2022-12-13T02:44:22.445Z,-7.30
2022-12-13T02:46:52.890Z,-7.50
2022-12-13T02:49:20.280Z,-7.60
2022-12-13T02:51:47.084Z,-7.50
2022-12-13T02:54:13.651Z,-7.60
2022-12-13T02:56:40.280Z,-7.60
2022-12-13T03:01:43.152Z,-7.70
2022-12-13T03:06:46.379Z,-7.70
2022-12-13T03:09:15.973Z,-7.60
2022-12-13T03:12:20.342Z,-7.60
2022-12-13T03:14:51.771Z,-7.70
2022-12-13T03:17:19.384Z,-7.70
2022-12-13T03:19:45.960Z,-7.70
2022-12-13T03:24:39.556Z,-7.60
2022-12-13T03:27:06.153Z,-7.60
2022-12-13T03:29:32.718Z,-7.60
2022-12-13T03:34:26.506Z,-7.70
2022-12-13T03:37:11.609Z,-7.80
2022-12-13T03:39:38.210Z,-7.70
2022-12-13T03:47:00.599Z,-7.70
2022-12-13T03:52:02.124Z,-7.80
2022-12-13T03:54:28.703Z,-7.90
2022-12-13T03:56:55.298Z,-7.80
2022-12-13T03:59:21.870Z,-7.80
2022-12-13T04:01:48.618Z,-7.80
2022-12-13T04:04:15.257Z,-7.80
2022-12-13T04:06:41.916Z,-7.80
2022-12-13T04:09:08.552Z,-7.80
2022-12-13T04:16:49.177Z,-8.10
2022-12-13T04:19:15.923Z,-7.90
2022-12-13T04:21:50.305Z,-8.00
2022-12-13T04:24:16.870Z,-8.10
2022-12-13T04:26:43.472Z,-8.00
2022-12-13T04:29:10.051Z,-8.00
2022-12-13T04:34:03.851Z,-8.10
2022-12-13T04:36:31.587Z,-8.10
2022-12-13T04:39:00.617Z,-8.10
2022-12-13T04:44:00.783Z,-8.10
2022-12-13T04:48:54.486Z,-8.00
2022-12-13T04:51:21.158Z,-8.00
2022-12-13T04:53:47.727Z,-8.00
2022-12-13T04:56:14.301Z,-7.90
2022-12-13T04:58:40.983Z,-8.00
2022-12-13T05:01:08.370Z,-8.10
2022-12-13T05:03:35.649Z,-8.10
2022-12-13T05:06:26.423Z,-8.10
2022-12-13T05:08:54.503Z,-8.00
2022-12-13T05:11:22.840Z,-8.00
2022-12-13T05:13:49.736Z,-8.00
2022-12-13T05:18:43.441Z,-7.90
2022-12-13T05:21:11.216Z,-7.80
2022-12-13T05:23:38.265Z,-7.90
2022-12-13T05:26:04.929Z,-7.80
2022-12-13T05:28:32.817Z,-7.90
2022-12-13T05:31:06.115Z,-7.80
2022-12-13T05:33:50.552Z,-7.80
2022-12-13T05:36:17.128Z,-7.80
2022-12-13T05:38:43.697Z,-7.90
2022-12-13T05:41:13.735Z,-7.90
2022-12-13T05:43:42.926Z,-7.90
2022-12-13T05:46:10.272Z,-7.90
2022-12-13T05:48:37.005Z,-7.90
2022-12-13T05:51:10.804Z,-7.90
2022-12-13T05:53:41.209Z,-7.90
2022-12-13T05:58:36.445Z,-8.00
2022-12-13T06:01:07.337Z,-8.20
2022-12-13T06:03:34.021Z,-8.10
2022-12-13T06:06:01.431Z,-8.00
2022-12-13T06:08:28.323Z,-8.10
2022-12-13T06:11:10.613Z,-8.10
2022-12-13T06:13:43.689Z,-8.20
2022-12-13T06:18:50.541Z,-8.10
2022-12-13T06:21:17.618Z,-8.10
2022-12-13T06:23:44.190Z,-8.20
2022-12-13T06:26:10.765Z,-8.10
2022-12-13T06:28:37.352Z,-8.20
2022-12-13T06:31:04.930Z,-8.20
2022-12-13T06:33:35.457Z,-8.20
2022-12-13T06:36:03.059Z,-8.20
2022-12-13T06:38:31.879Z,-8.20
2022-12-13T06:41:09.283Z,-8.10
2022-12-13T06:43:36.256Z,-8.30
2022-12-13T06:46:06.048Z,-8.20
2022-12-13T06:48:33.108Z,-8.30
2022-12-13T06:51:00.721Z,-8.30
2022-12-13T06:58:21.419Z,-8.30
2022-12-13T07:03:16.265Z,-8.30
2022-12-13T07:05:43.068Z,-8.20
2022-12-13T07:08:10.226Z,-8.10
2022-12-13T07:10:38.561Z,-8.10
2022-12-13T07:13:05.282Z,-8.10
2022-12-13T07:15:33.158Z,-8.00
2022-12-13T07:17:59.975Z,-8.00
2022-12-13T07:20:26.566Z,-8.00
2022-12-13T07:22:58.719Z,-8.00
2022-12-13T07:25:27.882Z,-7.90
2022-12-13T07:28:01.765Z,-7.80
2022-12-13T07:30:30.075Z,-7.90
2022-12-13T07:32:56.672Z,-7.90
2022-12-13T07:37:50.284Z,-7.80
2022-12-13T07:40:16.867Z,-7.90
2022-12-13T07:42:49.119Z,-7.80
2022-12-13T07:45:15.803Z,-7.80
2022-12-13T07:47:42.388Z,-7.90
2022-12-13T07:50:24.277Z,-7.70
2022-12-13T07:52:52.937Z,-7.60
2022-12-13T07:55:23.355Z,-7.60
2022-12-13T07:58:04.267Z,-7.50
2022-12-13T08:00:31.351Z,-7.50
2022-12-13T08:03:00.613Z,-7.40
2022-12-13T08:07:54.866Z,-7.30
2022-12-13T08:10:21.888Z,-7.20
2022-12-13T08:12:49.989Z,-7.30
2022-12-13T08:15:17.366Z,-7.10
2022-12-13T08:17:43.939Z,-7.10
2022-12-13T08:20:10.715Z,-7.00
2022-12-13T08:22:37.303Z,-6.90
2022-12-13T08:25:04.193Z,-6.70
2022-12-13T08:27:30.797Z,-6.70
2022-12-13T08:32:26.033Z,-6.70
2022-12-13T08:34:52.708Z,-6.70
2022-12-13T08:37:19.350Z,-6.60
2022-12-13T08:39:46.009Z,-6.60
2022-12-13T08:42:15.514Z,-6.50
2022-12-13T08:44:44.553Z,-6.60
2022-12-13T08:47:11.219Z,-6.60
2022-12-13T08:49:37.766Z,-6.40
2022-12-13T08:52:04.687Z,-6.20
2022-12-13T08:54:32.940Z,-6.00
2022-12-13T08:56:59.518Z,-5.90
2022-12-13T08:59:26.678Z,-5.80
2022-12-13T09:01:54.594Z,-5.60
2022-12-13T09:04:32.087Z,-5.60
2022-12-13T09:07:01.803Z,-5.50
2022-12-13T09:09:29.172Z,-5.40
2022-12-13T09:11:59.643Z,-5.40
2022-12-13T09:14:34.261Z,-5.50
2022-12-13T09:17:02.755Z,-5.70
2022-12-13T09:19:36.817Z,-5.50
2022-12-13T09:22:04.952Z,-5.50
2022-12-13T09:24:36.567Z,-5.30
2022-12-13T09:27:09.427Z,-5.00
2022-12-13T09:29:37.561Z,-5.00
2022-12-13T09:32:04.423Z,-5.00
2022-12-13T09:34:33.149Z,-4.80
2022-12-13T09:37:01.162Z,-4.80
2022-12-13T09:39:28.895Z,-4.70
2022-12-13T09:42:01.164Z,-4.80
2022-12-13T09:44:42.316Z,-4.50
2022-12-13T09:47:14.036Z,-4.60
2022-12-13T09:49:52.958Z,-4.70
2022-12-13T09:52:22.463Z,-5.00
2022-12-13T09:54:51.842Z,-4.90
2022-12-13T09:57:32.095Z,-4.70
2022-12-13T10:00:01.950Z,-4.70
2022-12-13T10:02:30.297Z,-4.70
2022-12-13T10:05:03.297Z,-4.60
2022-12-13T10:07:29.887Z,-4.60
2022-12-13T10:10:00.141Z,-4.70
2022-12-13T10:12:27.927Z,-4.60
2022-12-13T10:14:56.873Z,-4.40
2022-12-13T10:17:25.674Z,-4.50
2022-12-13T10:19:52.491Z,-4.50
2022-12-13T10:22:20.771Z,-4.50
2022-12-13T10:24:52.428Z,-4.50
2022-12-13T10:27:28.385Z,-4.60
2022-12-13T10:30:00.141Z,-4.60
2022-12-13T10:32:27.354Z,-4.50
2022-12-13T10:34:56.951Z,-4.30
2022-12-13T10:37:23.519Z,-4.40
2022-12-13T10:39:50.124Z,-4.40
2022-12-13T10:42:22.922Z,-4.40
2022-12-13T10:45:08.094Z,-4.40
2022-12-13T10:47:36.380Z,-4.50
2022-12-13T10:50:03.457Z,-4.30
2022-12-13T10:52:32.033Z,-4.20
2022-12-13T10:55:04.478Z,-4.10
2022-12-13T10:57:52.221Z,-3.90
2022-12-13T11:00:33.878Z,-3.90
2022-12-13T11:03:00.550Z,-3.90
2022-12-13T11:05:33.272Z,-3.80
2022-12-13T11:08:20.383Z,-3.80
2022-12-13T11:10:55.801Z,-3.70
2022-12-13T11:13:25.442Z,-3.60
2022-12-13T11:15:54.420Z,-3.40
2022-12-13T11:18:23.208Z,-3.20
2022-12-13T11:21:00.318Z,-3.10
2022-12-13T11:23:31.900Z,-2.90
2022-12-13T11:26:00.744Z,-2.90
2022-12-13T11:28:53.735Z,-2.80
2022-12-13T11:31:29.475Z,-2.70
2022-12-13T11:33:59.080Z,-2.50
2022-12-13T11:36:37.497Z,-2.40
2022-12-13T11:39:22.355Z,-2.40
2022-12-13T11:41:55.220Z,-1.80
2022-12-13T11:44:34.413Z,-1.10
2022-12-13T11:47:01.091Z,-1.10
2022-12-13T11:49:33.160Z,-1.20
2022-12-13T11:52:05.708Z,-0.80
2022-12-13T11:54:35.195Z,-1.00
2022-12-13T11:57:05.958Z,-0.90
2022-12-13T11:59:52.595Z,-0.60
2022-12-13T12:02:32.454Z,-0.70
2022-12-13T12:05:01.343Z,-0.90
2022-12-13T12:07:48.324Z,-0.60
2022-12-13T12:10:37.665Z,-0.20
2022-12-13T12:13:10.472Z,0.00
2022-12-13T12:15:41.843Z,-0.50
2022-12-13T12:18:13.465Z,-0.30
2022-12-13T12:20:46.070Z,-0.50
2022-12-13T12:23:31.602Z,-0.50
2022-12-13T12:26:06.181Z,-0.60
2022-12-13T12:28:44.732Z,-0.60
2022-12-13T12:31:25.467Z,-0.70
2022-12-13T12:33:58.582Z,-1.00
2022-12-13T12:36:31.221Z,-1.30
2022-12-13T12:39:12.911Z,-1.10
2022-12-13T12:41:51.668Z,-1.10
2022-12-13T12:44:18.237Z,-1.20
2022-12-13T12:47:08.843Z,-1.70
2022-12-13T12:49:49.834Z,-1.50
2022-12-13T12:52:19.211Z,-1.60
2022-12-13T12:55:02.850Z,-1.60
2022-12-13T12:57:48.225Z,-1.70
2022-12-13T13:00:15.615Z,-1.60
2022-12-13T13:02:48.074Z,-1.60
2022-12-13T13:05:23.826Z,-1.40
2022-12-13T13:07:53.489Z,-1.30
2022-12-13T13:10:26.105Z,0.40
2022-12-13T13:12:53.391Z,-1.30
2022-12-13T13:15:39.430Z,-1.10
2022-12-13T13:18:26.450Z,-0.90
2022-12-13T13:21:13.354Z,-0.80
2022-12-13T13:23:41.231Z,-0.70
2022-12-13T13:26:26.777Z,-1.20
2022-12-13T13:28:54.927Z,-1.00
2022-12-13T13:31:21.569Z,-0.90
2022-12-13T13:33:49.346Z,-1.40
2022-12-13T13:36:34.742Z,-1.40
2022-12-13T13:39:01.943Z,-1.40
2022-12-13T13:41:47.138Z,-1.60
2022-12-13T13:44:33.171Z,-1.70
2022-12-13T13:47:14.057Z,-2.20
2022-12-13T13:50:02.364Z,-1.90
2022-12-13T13:52:37.000Z,-1.70
2022-12-13T13:55:09.415Z,-1.90
2022-12-13T13:58:07.578Z,-1.90
2022-12-13T14:00:24.195Z,-1.90
2022-12-13T14:02:53.805Z,-2.10
2022-12-13T14:05:38.888Z,-2.20
2022-12-13T14:08:24.158Z,-2.30
2022-12-13T14:10:58.663Z,-2.10
2022-12-13T14:13:45.273Z,-2.50
2022-12-13T14:16:30.775Z,-2.50
2022-12-13T14:19:21.419Z,-2.60
2022-12-13T14:21:51.058Z,-2.70
2022-12-13T14:24:20.699Z,-2.70
2022-12-13T14:27:09.994Z,-2.90
2022-12-13T14:29:48.066Z,-3.00
2022-12-13T14:32:26.315Z,-3.00
2022-12-13T14:34:54.247Z,-3.00
2022-12-13T14:37:30.662Z,-3.20
2022-12-13T14:39:58.219Z,-3.40
2022-12-13T14:42:30.264Z,-3.20
2022-12-13T14:45:13.100Z,-3.30
2022-12-13T14:47:42.951Z,-3.40
2022-12-13T14:50:11.443Z,-3.40
2022-12-13T14:52:39.909Z,-3.40
2022-12-13T14:55:06.954Z,-3.40
2022-12-13T14:57:34.559Z,-3.40
2022-12-13T15:00:20.239Z,-3.50
2022-12-13T15:02:50.981Z,-3.50
2022-12-13T15:05:28.872Z,-3.70
2022-12-13T15:07:56.397Z,-3.80
2022-12-13T15:10:29.983Z,-3.70
2022-12-13T15:12:56.559Z,-3.80
2022-12-13T15:15:38.430Z,-3.80
2022-12-13T15:18:18.461Z,-3.80
2022-12-13T15:20:46.296Z,-4.00
2022-12-13T15:23:15.876Z,-4.00
2022-12-13T15:25:42.852Z,-4.20
2022-12-13T15:28:21.467Z,-4.30
2022-12-13T15:30:48.671Z,-4.30
2022-12-13T15:33:20.756Z,-4.30
2022-12-13T15:35:48.441Z,-4.20
2022-12-13T15:38:28.236Z,-4.30
2022-12-13T15:40:56.323Z,-4.30
2022-12-13T15:43:28.682Z,-4.30
2022-12-13T15:45:55.810Z,-4.30
2022-12-13T15:48:24.597Z,-4.40
2022-12-13T15:51:04.119Z,-4.50
2022-12-13T15:53:31.957Z,-4.40
2022-12-13T15:55:58.566Z,-4.40
2022-12-13T15:58:26.738Z,-4.50
2022-12-13T16:00:53.554Z,-4.40
2022-12-13T16:03:22.502Z,-4.60
2022-12-13T16:05:50.575Z,-4.60
2022-12-13T16:08:23.379Z,-4.60
2022-12-13T16:10:52.040Z,-4.70
2022-12-13T16:13:39.640Z,-4.60
2022-12-13T16:16:26.623Z,-4.70
2022-12-13T16:18:58.574Z,-4.70
2022-12-13T16:21:25.960Z,-4.80
2022-12-13T16:23:52.734Z,-4.70
2022-12-13T16:26:26.498Z,-4.70
2022-12-13T16:28:53.683Z,-4.70
2022-12-13T16:31:22.323Z,-4.70
2022-12-13T16:33:49.325Z,-4.60
2022-12-13T16:36:16.002Z,-4.70
2022-12-13T16:38:42.586Z,-4.60
2022-12-13T16:41:09.941Z,-4.60
2022-12-13T16:43:44.895Z,-4.70
2022-12-13T16:47:14.457Z,-4.70
2022-12-13T16:48:58.605Z,-4.70
2022-12-13T16:51:25.223Z,-4.60
2022-12-13T16:53:51.798Z,-4.70
2022-12-13T16:56:21.806Z,-3.00
2022-12-13T16:58:50.300Z,-4.80
2022-12-13T17:01:20.678Z,-4.70
2022-12-13T17:03:47.746Z,-4.70
2022-12-13T17:06:14.927Z,-4.70
2022-12-13T17:08:41.558Z,-4.60
2022-12-13T17:11:14.684Z,-4.70
2022-12-13T17:13:44.990Z,-4.70
2022-12-13T17:16:11.661Z,-4.80
2022-12-13T17:18:38.351Z,-4.70
2022-12-13T17:21:08.970Z,-4.80
2022-12-13T17:23:35.711Z,-4.80
2022-12-13T17:26:06.519Z,-4.80
2022-12-13T17:28:33.217Z,-4.70
2022-12-13T17:31:12.097Z,-4.70
2022-12-13T17:33:39.320Z,-4.80
2022-12-13T17:36:06.942Z,-4.90
2022-12-13T17:38:33.825Z,-5.00
2022-12-13T17:41:00.887Z,-5.00
2022-12-13T17:43:34.341Z,-5.00
2022-12-13T17:46:03.026Z,-5.20
2022-12-13T17:48:37.268Z,-5.20
2022-12-13T17:51:08.217Z,-5.20
2022-12-13T17:53:35.772Z,-5.20
2022-12-13T17:56:03.567Z,-5.20
2022-12-13T17:58:32.105Z,-5.20
2022-12-13T18:00:59.251Z,-5.20
2022-12-13T18:03:26.748Z,-5.20
2022-12-13T18:05:57.874Z,-5.30
2022-12-13T18:08:24.819Z,-5.30
2022-12-13T18:11:15.708Z,-5.20
2022-12-13T18:13:42.262Z,-5.10
2022-12-13T18:16:10.346Z,-5.10
2022-12-13T18:18:37.009Z,-5.00
2022-12-13T18:21:07.476Z,-5.00
2022-12-13T18:23:34.482Z,-5.00
2022-12-13T18:26:02.066Z,-5.10
2022-12-13T18:28:29.050Z,-5.00
2022-12-13T18:31:15.334Z,-5.00
2022-12-13T18:33:47.270Z,-4.90
2022-12-13T18:36:14.556Z,-5.10
2022-12-13T18:38:42.284Z,-5.10
2022-12-13T18:41:09.895Z,-5.10
2022-12-13T18:43:36.504Z,-5.00
2022-12-13T18:46:04.124Z,-5.10
2022-12-13T18:48:31.359Z,-5.10
2022-12-13T18:50:58.732Z,-5.30
2022-12-13T18:53:25.680Z,-5.30
2022-12-13T18:55:52.437Z,-5.30
2022-12-13T18:58:19.079Z,-5.40
2022-12-13T19:00:45.793Z,-5.30
2022-12-13T19:03:12.403Z,-5.30
2022-12-13T19:05:39.013Z,-5.10
2022-12-13T19:08:05.676Z,-5.20
2022-12-13T19:10:32.392Z,-5.00
2022-12-13T19:12:59.011Z,-5.00
2022-12-13T19:15:27.491Z,-5.00
2022-12-13T19:17:54.079Z,-5.00
2022-12-13T19:20:20.845Z,-5.00
2022-12-13T19:22:47.665Z,-5.00
2022-12-13T19:25:14.354Z,-5.10
2022-12-13T19:27:40.972Z,-5.20
2022-12-13T19:30:07.937Z,-5.30
2022-12-13T19:32:34.574Z,-5.20
2022-12-13T19:35:01.230Z,-5.10
2022-12-13T19:37:27.880Z,-5.10
2022-12-13T19:39:54.510Z,-5.10
2022-12-13T19:42:21.088Z,-5.10
2022-12-13T19:44:47.782Z,-5.20
2022-12-13T19:47:14.464Z,-5.20
2022-12-13T19:49:41.262Z,-5.20
2022-12-13T19:52:07.831Z,-5.10
2022-12-13T19:54:34.448Z,-5.10
2022-12-13T19:57:06.880Z,-5.00
2022-12-13T19:59:33.857Z,-4.90
2022-12-13T20:02:00.475Z,-4.90
2022-12-13T20:04:27.186Z,-4.90
2022-12-13T20:06:53.831Z,-4.80
2022-12-13T20:09:20.591Z,-5.00
2022-12-13T20:11:47.238Z,-4.90
2022-12-13T20:14:13.830Z,-4.90
2022-12-13T20:16:41.828Z,-4.80
2022-12-13T20:19:09.650Z,-4.80
2022-12-13T20:21:36.273Z,-4.70
2022-12-13T20:24:03.136Z,-4.80
2022-12-13T20:26:31.323Z,-2.80
2022-12-13T20:28:57.932Z,-4.60
2022-12-13T20:31:26.246Z,-4.80
2022-12-13T20:33:56.850Z,-4.70
2022-12-13T20:36:26.363Z,-4.60
2022-12-13T20:38:55.194Z,-4.70
2022-12-13T20:41:21.798Z,-4.80
2022-12-13T20:43:51.133Z,-4.80
2022-12-13T20:46:17.934Z,-4.70
2022-12-13T20:48:45.892Z,-4.80
2022-12-13T20:51:13.990Z,-4.90
2022-12-13T20:53:42.002Z,-4.90
2022-12-13T20:56:10.942Z,-4.70
2022-12-13T20:58:40.161Z,-3.40
2022-12-13T21:01:07.239Z,-4.70
2022-12-13T21:03:34.311Z,-4.80
2022-12-13T21:06:00.902Z,-4.70
2022-12-13T21:08:46.308Z,-4.50
2022-12-13T21:11:24.878Z,-4.50
2022-12-13T21:14:05.435Z,-4.60
2022-12-13T21:19:01.903Z,-4.60
2022-12-13T21:21:29.095Z,-4.50
2022-12-13T21:23:56.355Z,-4.40
2022-12-13T21:26:24.226Z,-4.40
2022-12-13T21:28:57.976Z,-4.40
2022-12-13T21:31:25.109Z,-4.60
2022-12-13T21:33:56.232Z,-4.60
2022-12-13T21:36:24.298Z,-4.40
2022-12-13T21:38:58.405Z,-4.40
2022-12-13T21:41:25.354Z,-4.40
2022-12-13T21:43:52.450Z,-4.50
2022-12-13T21:46:26.012Z,-4.40
2022-12-13T21:48:59.602Z,-4.30
2022-12-13T21:51:30.658Z,-4.30
2022-12-13T21:54:00.453Z,-4.20
2022-12-13T21:56:49.231Z,-4.20
2022-12-13T21:59:18.385Z,-4.40
2022-12-13T22:02:09.630Z,-4.40
2022-12-13T22:04:37.266Z,-4.40
2022-12-13T22:07:04.776Z,-4.40
2022-12-13T22:09:31.369Z,-4.50
2022-12-13T22:11:58.108Z,-4.30
2022-12-13T22:14:24.693Z,-4.30
2022-12-13T22:16:51.390Z,-4.30
2022-12-13T22:19:18.071Z,-4.20
2022-12-13T22:24:12.177Z,-4.20
2022-12-13T22:26:39.123Z,-4.30
2022-12-13T22:29:05.768Z,-4.20
2022-12-13T22:31:32.451Z,-4.30
2022-12-13T22:33:59.225Z,-4.20
2022-12-13T22:36:26.052Z,-4.20
2022-12-13T22:38:53.129Z,-4.20
2022-12-13T22:46:16.558Z,-4.00
2022-12-13T22:48:43.421Z,-4.20
2022-12-13T22:51:14.260Z,-4.00
2022-12-13T22:53:41.725Z,-4.10
2022-12-13T22:56:11.299Z,-4.10
2022-12-13T22:58:39.921Z,-4.00
2022-12-13T23:01:14.413Z,-4.00
2022-12-13T23:03:41.413Z,-4.00
2022-12-13T23:06:08.930Z,-3.90
2022-12-13T23:08:40.304Z,-3.90
2022-12-13T23:11:28.971Z,-3.90
2022-12-13T23:13:57.044Z,-3.90
2022-12-13T23:16:24.590Z,-3.90
2022-12-13T23:19:01.235Z,-3.80
2022-12-13T23:21:37.960Z,-3.90
2022-12-13T23:24:05.019Z,-4.10
2022-12-13T23:26:32.901Z,-4.00
2022-12-13T23:29:00.383Z,-3.90
2022-12-13T23:31:27.726Z,-3.70
2022-12-13T23:33:54.346Z,-3.60
2022-12-13T23:36:21.852Z,-3.70
2022-12-13T23:38:48.852Z,-3.60
2022-12-13T23:41:20.430Z,-3.70
2022-12-13T23:43:50.626Z,-3.80
2022-12-13T23:46:19.242Z,-3.90
2022-12-13T23:48:46.445Z,-3.90
2022-12-13T23:51:13.746Z,-4.00
2022-12-13T23:53:40.531Z,-4.00
2022-12-13T23:56:08.742Z,-3.80
2022-12-13T23:58:36.786Z,-3.70
